createdAt,value
2023-05-25T00:00:18.914Z,2.35
2023-05-25T00:01:03.176Z,1.88
2023-05-25T00:01:49.009Z,1.90
2023-05-25T00:02:30.889Z,1.95
2023-05-25T00:03:12.746Z,1.83
2023-05-25T00:03:55.361Z,1.77
2023-05-25T00:04:38.443Z,2.10
2023-05-25T00:05:20.962Z,1.77
2023-05-25T00:06:02.631Z,1.88
2023-05-25T00:06:45.476Z,1.92
2023-05-25T00:07:27.113Z,1.85
2023-05-25T00:08:08.793Z,1.80
2023-05-25T00:08:51.583Z,1.88
2023-05-25T00:09:33.303Z,2.10
2023-05-25T00:10:14.991Z,1.95
2023-05-25T00:10:56.744Z,1.92
2023-05-25T00:11:38.903Z,2.10
2023-05-25T00:12:20.890Z,2.28
2023-05-25T00:13:02.714Z,1.50
2023-05-25T00:13:44.338Z,2.35
2023-05-25T00:14:25.982Z,2.00
2023-05-25T00:15:08.198Z,1.90
2023-05-25T00:15:50.468Z,1.90
2023-05-25T00:16:37.365Z,2.30
2023-05-25T00:17:19.086Z,1.77
2023-05-25T00:18:00.891Z,1.83
2023-05-25T00:18:43.277Z,2.15
2023-05-25T00:19:25.155Z,2.20
2023-05-25T00:20:09.052Z,2.38
2023-05-25T00:20:54.158Z,2.00
2023-05-25T00:21:38.087Z,2.08
2023-05-25T00:22:20.543Z,2.10
2023-05-25T00:23:05.277Z,1.80
2023-05-25T00:23:47.038Z,1.60
2023-05-25T00:24:30.726Z,1.70
2023-05-25T00:25:12.695Z,1.98
2023-05-25T00:25:54.295Z,2.10
2023-05-25T00:26:36.190Z,1.90
2023-05-25T00:27:17.874Z,2.08
2023-05-25T00:27:59.564Z,1.95
2023-05-25T00:28:41.242Z,1.67
2023-05-25T00:29:24.663Z,1.75
2023-05-25T00:30:07.099Z,1.58
2023-05-25T00:30:49.093Z,2.03
2023-05-25T00:31:33.026Z,1.80
2023-05-25T00:32:14.926Z,1.98
2023-05-25T00:32:56.688Z,1.63
2023-05-25T00:33:38.419Z,1.75
2023-05-25T00:34:20.817Z,2.17
2023-05-25T00:35:03.918Z,1.67
2023-05-25T00:35:46.711Z,1.75
2023-05-25T00:36:30.471Z,2.25
2023-05-25T00:37:12.193Z,2.05
2023-05-25T00:37:53.834Z,1.92
2023-05-25T00:38:35.584Z,1.70
2023-05-25T00:39:19.464Z,1.65
2023-05-25T00:40:01.254Z,2.03
2023-05-25T00:40:43.269Z,2.20
2023-05-25T00:41:27.104Z,2.20
2023-05-25T00:42:08.915Z,2.20
2023-05-25T00:42:51.112Z,2.20
2023-05-25T00:43:32.809Z,1.88
2023-05-25T00:44:15.868Z,2.50
2023-05-25T00:44:57.704Z,2.50
2023-05-25T00:45:39.689Z,1.70
2023-05-25T00:46:22.378Z,1.75
2023-05-25T00:47:04.911Z,1.70
2023-05-25T00:47:51.852Z,1.90
2023-05-25T00:48:33.702Z,1.73
2023-05-25T00:49:17.035Z,1.90
2023-05-25T00:49:58.747Z,1.63
2023-05-25T00:50:43.413Z,1.77
2023-05-25T00:51:26.371Z,2.30
2023-05-25T00:52:08.463Z,2.13
2023-05-25T00:52:50.315Z,1.60
2023-05-25T00:53:33.700Z,1.73
2023-05-25T00:54:16.378Z,1.83
2023-05-25T00:55:00.979Z,2.28
2023-05-25T00:56:07.484Z,1.90
2023-05-25T00:56:56.393Z,1.83
2023-05-25T00:57:41.519Z,1.85
2023-05-25T00:58:26.861Z,1.52
2023-05-25T00:59:11.904Z,1.90
2023-05-25T00:59:55.670Z,1.60
2023-05-25T01:00:38.697Z,2.03
2023-05-25T01:01:22.884Z,1.80
2023-05-25T01:02:08.278Z,1.60
2023-05-25T01:02:52.953Z,1.70
2023-05-25T01:03:38.260Z,2.00
2023-05-25T01:04:21.587Z,1.65
2023-05-25T01:05:06.510Z,1.70
2023-05-25T01:05:51.344Z,1.65
2023-05-25T01:06:34.661Z,1.90
2023-05-25T01:07:19.190Z,2.03
2023-05-25T01:08:03.590Z,1.90
2023-05-25T01:08:53.788Z,1.77
2023-05-25T01:09:39.068Z,1.80
2023-05-25T01:10:22.946Z,1.73
2023-05-25T01:11:06.533Z,1.60
2023-05-25T01:11:50.358Z,1.67
2023-05-25T01:12:36.695Z,1.65
2023-05-25T01:13:20.231Z,1.88
2023-05-25T01:14:02.727Z,2.28
2023-05-25T01:14:46.770Z,1.92
2023-05-25T01:15:30.334Z,2.15
2023-05-25T01:16:13.061Z,2.42
2023-05-25T01:16:59.002Z,1.90
2023-05-25T01:17:41.331Z,2.25
2023-05-25T01:18:23.056Z,2.13
2023-05-25T01:19:04.819Z,1.75
2023-05-25T01:20:01.608Z,2.03
2023-05-25T01:21:13.381Z,2.10
2023-05-25T01:21:59.401Z,2.45
2023-05-25T01:22:51.396Z,2.10
2023-05-25T01:23:36.708Z,2.33
2023-05-25T01:24:40.724Z,2.03
2023-05-25T01:25:27.068Z,1.92
2023-05-25T01:26:15.268Z,1.90
2023-05-25T01:27:32.524Z,1.75
2023-05-25T01:28:25.495Z,2.10
2023-05-25T01:29:07.992Z,1.70
2023-05-25T01:29:49.665Z,1.92
2023-05-25T01:30:32.873Z,1.90
2023-05-25T01:31:16.013Z,1.75
2023-05-25T01:31:58.585Z,2.13
2023-05-25T01:32:43.435Z,2.00
2023-05-25T01:33:26.318Z,2.10
2023-05-25T01:34:09.288Z,2.05
2023-05-25T01:34:52.384Z,1.77
2023-05-25T01:35:35.355Z,2.08
2023-05-25T01:36:18.658Z,1.65
2023-05-25T01:37:00.775Z,1.95
2023-05-25T01:37:46.832Z,2.03
2023-05-25T01:38:28.545Z,2.15
2023-05-25T01:39:11.090Z,2.33
2023-05-25T01:39:53.135Z,1.65
2023-05-25T01:40:34.790Z,2.35
2023-05-25T01:41:17.562Z,1.90
2023-05-25T01:41:59.558Z,2.30
2023-05-25T01:42:41.954Z,1.73
2023-05-25T01:43:23.958Z,1.70
2023-05-25T01:44:07.578Z,1.95
2023-05-25T01:44:49.714Z,2.20
2023-05-25T01:45:32.967Z,1.77
2023-05-25T01:46:23.290Z,2.20
2023-05-25T01:47:17.031Z,1.98
2023-05-25T01:48:19.703Z,1.58
2023-05-25T01:49:12.706Z,2.22
2023-05-25T01:50:06.458Z,1.90
2023-05-25T01:50:51.148Z,2.08
2023-05-25T01:51:43.876Z,1.90
2023-05-25T01:52:32.411Z,1.63
2023-05-25T01:53:26.475Z,2.20
2023-05-25T01:54:16.931Z,2.35
2023-05-25T01:55:06.349Z,1.98
2023-05-25T01:56:08.449Z,2.08
2023-05-25T01:56:52.487Z,1.90
2023-05-25T01:57:37.505Z,2.00
2023-05-25T01:58:22.653Z,2.08
2023-05-25T01:59:07.942Z,2.33
2023-05-25T01:59:52.459Z,2.15
2023-05-25T02:00:35.795Z,1.80
2023-05-25T02:01:18.534Z,2.10
2023-05-25T02:02:01.894Z,2.30
2023-05-25T02:02:46.961Z,2.38
2023-05-25T02:03:29.035Z,2.10
2023-05-25T02:04:11.388Z,1.92
2023-05-25T02:04:56.920Z,2.03
2023-05-25T02:05:42.305Z,2.00
2023-05-25T02:06:24.200Z,2.10
2023-05-25T02:07:07.188Z,2.30
2023-05-25T02:07:48.905Z,2.33
2023-05-25T02:08:30.682Z,2.20
2023-05-25T02:09:14.885Z,2.10
2023-05-25T02:09:56.646Z,2.17
2023-05-25T02:10:38.278Z,2.22
2023-05-25T02:11:20.043Z,2.03
2023-05-25T02:12:02.437Z,2.05
2023-05-25T02:12:44.298Z,2.20
2023-05-25T02:13:25.958Z,1.70
2023-05-25T02:14:09.038Z,2.20
2023-05-25T02:14:50.949Z,2.22
2023-05-25T02:15:33.867Z,2.22
2023-05-25T02:16:15.683Z,2.47
2023-05-25T02:17:02.448Z,2.30
2023-05-25T02:17:44.559Z,2.25
2023-05-25T02:18:26.410Z,2.63
2023-05-25T02:19:09.170Z,2.47
2023-05-25T02:19:53.157Z,2.42
2023-05-25T02:20:36.939Z,1.77
2023-05-25T02:21:18.846Z,2.00
2023-05-25T02:22:00.569Z,1.77
2023-05-25T02:22:42.244Z,2.00
2023-05-25T02:23:23.942Z,2.47
2023-05-25T02:24:06.498Z,2.13
2023-05-25T02:24:48.299Z,2.10
2023-05-25T02:25:30.038Z,2.95
2023-05-25T02:26:11.754Z,2.28
2023-05-25T02:26:53.566Z,2.47
2023-05-25T02:27:36.286Z,2.58
2023-05-25T02:28:18.132Z,2.30
2023-05-25T02:29:01.872Z,2.50
2023-05-25T02:29:43.549Z,2.17
2023-05-25T02:30:25.371Z,2.88
2023-05-25T02:31:09.868Z,2.00
2023-05-25T02:31:51.772Z,2.28
2023-05-25T02:32:33.786Z,2.45
2023-05-25T02:33:16.811Z,2.30
2023-05-25T02:33:58.943Z,2.70
2023-05-25T02:34:41.361Z,2.60
2023-05-25T02:35:23.178Z,2.28
2023-05-25T02:36:05.887Z,2.63
2023-05-25T02:36:47.619Z,2.50
2023-05-25T02:37:29.432Z,2.25
2023-05-25T02:38:11.166Z,2.40
2023-05-25T02:38:52.899Z,2.83
2023-05-25T02:39:34.710Z,1.92
2023-05-25T02:40:18.607Z,2.70
2023-05-25T02:41:00.411Z,2.80
2023-05-25T02:41:42.170Z,2.60
2023-05-25T02:42:23.846Z,2.88
2023-05-25T02:43:05.686Z,2.13
2023-05-25T02:43:47.972Z,2.22
2023-05-25T02:44:31.321Z,2.30
2023-05-25T02:45:13.073Z,2.60
2023-05-25T02:45:55.859Z,2.20
2023-05-25T02:46:38.392Z,2.38
2023-05-25T02:47:21.754Z,1.98
2023-05-25T02:48:03.655Z,2.10
2023-05-25T02:48:47.660Z,2.72
2023-05-25T02:49:30.030Z,2.20
2023-05-25T02:50:11.773Z,2.45
2023-05-25T02:50:58.634Z,2.30
2023-05-25T02:51:40.517Z,2.70
2023-05-25T02:52:22.659Z,2.20
2023-05-25T02:53:04.519Z,2.67
2023-05-25T02:53:46.367Z,2.47
2023-05-25T02:54:28.006Z,2.20
2023-05-25T02:55:18.656Z,2.15
2023-05-25T02:56:02.148Z,2.22
2023-05-25T02:56:47.076Z,2.45
2023-05-25T02:57:32.601Z,2.15
2023-05-25T02:58:15.281Z,2.45
2023-05-25T02:59:15.994Z,2.15
2023-05-25T02:59:57.716Z,2.50
2023-05-25T03:00:39.458Z,2.22
2023-05-25T03:01:21.416Z,2.67
2023-05-25T03:02:06.966Z,2.40
2023-05-25T03:02:48.996Z,2.80
2023-05-25T03:03:33.328Z,2.55
2023-05-25T03:04:15.074Z,4.43
2023-05-25T03:04:58.156Z,3.67
2023-05-25T03:05:40.054Z,2.97
2023-05-25T03:06:23.025Z,2.70
2023-05-25T03:07:07.867Z,3.15
2023-05-25T03:07:49.480Z,2.80
2023-05-25T03:08:31.451Z,2.90
2023-05-25T03:09:14.629Z,3.10
2023-05-25T03:09:56.698Z,3.10
2023-05-25T03:10:38.844Z,2.30
2023-05-25T03:11:23.326Z,2.17
2023-05-25T03:12:05.590Z,2.78
2023-05-25T03:12:47.263Z,2.13
2023-05-25T03:13:28.925Z,2.72
2023-05-25T03:14:11.201Z,2.03
2023-05-25T03:14:53.747Z,2.22
2023-05-25T03:15:36.666Z,2.35
2023-05-25T03:16:19.999Z,2.53
2023-05-25T03:17:03.223Z,2.30
2023-05-25T03:17:45.025Z,2.28
2023-05-25T03:18:27.731Z,2.20
2023-05-25T03:19:10.910Z,2.00
2023-05-25T03:19:53.208Z,2.50
2023-05-25T03:20:35.157Z,2.15
2023-05-25T03:21:17.644Z,2.13
2023-05-25T03:21:59.737Z,1.88
2023-05-25T03:23:00.051Z,2.65
2023-05-25T03:23:41.756Z,3.10
2023-05-25T03:24:23.823Z,2.38
2023-05-25T03:25:06.038Z,2.47
2023-05-25T03:25:47.708Z,2.53
2023-05-25T03:26:30.659Z,3.15
2023-05-25T03:27:12.407Z,2.30
2023-05-25T03:27:54.448Z,2.33
2023-05-25T03:28:36.130Z,2.13
2023-05-25T03:29:17.836Z,2.63
2023-05-25T03:29:59.569Z,2.47
2023-05-25T03:30:45.148Z,2.55
2023-05-25T03:31:27.204Z,2.55
2023-05-25T03:32:09.368Z,2.40
2023-05-25T03:32:52.520Z,2.67
2023-05-25T03:33:34.380Z,2.55
2023-05-25T03:34:16.095Z,2.28
2023-05-25T03:34:58.246Z,2.20
2023-05-25T03:35:41.548Z,2.65
2023-05-25T03:36:27.410Z,3.03
2023-05-25T03:37:09.066Z,2.78
2023-05-25T03:37:50.759Z,2.55
2023-05-25T03:38:32.719Z,2.55
2023-05-25T03:39:14.675Z,2.50
2023-05-25T03:39:56.449Z,2.42
2023-05-25T03:40:38.751Z,2.28
2023-05-25T03:41:20.789Z,2.35
2023-05-25T03:42:06.399Z,2.53
2023-05-25T03:42:48.112Z,2.40
2023-05-25T03:43:29.894Z,2.50
2023-05-25T03:44:11.772Z,2.45
2023-05-25T03:44:53.542Z,2.30
2023-05-25T03:45:35.283Z,2.58
2023-05-25T03:46:17.176Z,2.72
2023-05-25T03:46:59.011Z,2.45
2023-05-25T03:47:41.369Z,3.03
2023-05-25T03:48:23.464Z,2.63
2023-05-25T03:49:05.795Z,3.30
2023-05-25T03:49:47.433Z,2.20
2023-05-25T03:50:29.072Z,2.40
2023-05-25T03:51:11.978Z,2.63
2023-05-25T03:51:53.819Z,2.80
2023-05-25T03:52:36.148Z,2.20
2023-05-25T03:53:18.099Z,2.83
2023-05-25T03:53:59.986Z,2.90
2023-05-25T03:54:41.622Z,2.33
2023-05-25T03:55:24.116Z,2.63
2023-05-25T03:56:06.591Z,2.97
2023-05-25T03:56:48.245Z,2.50
2023-05-25T03:57:29.885Z,2.88
2023-05-25T03:58:11.544Z,2.60
2023-05-25T03:58:53.240Z,2.90
2023-05-25T03:59:35.093Z,2.83
2023-05-25T04:00:16.966Z,2.67
2023-05-25T04:00:58.761Z,2.88
2023-05-25T04:01:40.447Z,2.67
2023-05-25T04:02:22.296Z,2.75
2023-05-25T04:03:04.246Z,2.60
2023-05-25T04:03:46.142Z,2.38
2023-05-25T04:04:28.287Z,2.47
2023-05-25T04:05:10.001Z,2.72
2023-05-25T04:05:51.645Z,2.28
2023-05-25T04:06:33.933Z,2.60
2023-05-25T04:07:15.825Z,2.50
2023-05-25T04:07:57.680Z,2.65
2023-05-25T04:08:41.000Z,2.85
2023-05-25T04:09:22.833Z,2.97
2023-05-25T04:10:05.547Z,2.47
2023-05-25T04:10:47.430Z,2.42
2023-05-25T04:11:29.249Z,2.75
2023-05-25T04:12:10.912Z,2.58
2023-05-25T04:12:52.605Z,2.60
2023-05-25T04:13:36.348Z,2.65
2023-05-25T04:14:21.089Z,2.75
2023-05-25T04:15:05.397Z,2.50
2023-05-25T04:15:50.658Z,2.63
2023-05-25T04:16:35.965Z,2.55
2023-05-25T04:17:19.371Z,2.40
2023-05-25T04:18:02.959Z,2.20
2023-05-25T04:18:44.751Z,2.45
2023-05-25T04:19:26.466Z,2.47
2023-05-25T04:20:09.442Z,3.53
2023-05-25T04:20:51.559Z,2.67
2023-05-25T04:21:36.698Z,2.85
2023-05-25T04:22:19.052Z,2.88
2023-05-25T04:23:02.447Z,2.63
2023-05-25T04:23:44.381Z,2.55
2023-05-25T04:24:26.298Z,2.95
2023-05-25T04:25:08.766Z,2.50
2023-05-25T04:25:51.240Z,2.67
2023-05-25T04:26:33.624Z,2.47
2023-05-25T04:27:17.400Z,2.38
2023-05-25T04:27:59.084Z,2.30
2023-05-25T04:29:01.857Z,2.50
2023-05-25T04:29:58.509Z,2.42
2023-05-25T04:31:13.455Z,2.88
2023-05-25T04:32:17.817Z,2.55
2023-05-25T04:33:04.193Z,2.65
2023-05-25T04:34:06.504Z,2.45
2023-05-25T04:34:55.104Z,2.90
2023-05-25T04:35:40.787Z,2.33
2023-05-25T04:36:22.977Z,2.28
2023-05-25T04:37:05.650Z,2.40
2023-05-25T04:37:48.345Z,2.58
2023-05-25T04:38:30.817Z,2.72
2023-05-25T04:39:14.153Z,3.13
2023-05-25T04:40:01.739Z,2.53
2023-05-25T04:40:46.369Z,2.63
2023-05-25T04:41:29.808Z,2.67
2023-05-25T04:42:14.570Z,3.10
2023-05-25T04:42:57.117Z,2.60
2023-05-25T04:43:46.555Z,2.80
2023-05-25T04:44:39.965Z,2.50
2023-05-25T04:45:24.709Z,2.67
2023-05-25T04:46:08.708Z,3.08
2023-05-25T04:46:50.484Z,2.50
2023-05-25T04:47:41.121Z,2.72
2023-05-25T04:48:24.554Z,2.67
2023-05-25T04:49:08.557Z,2.40
2023-05-25T04:49:51.060Z,2.60
2023-05-25T04:50:32.776Z,2.83
2023-05-25T04:51:14.656Z,2.35
2023-05-25T04:51:56.434Z,2.67
2023-05-25T04:52:39.254Z,2.78
2023-05-25T04:53:21.263Z,2.67
2023-05-25T04:54:03.281Z,2.85
2023-05-25T04:54:45.016Z,2.40
2023-05-25T04:55:27.941Z,2.80
2023-05-25T04:56:09.651Z,2.90
2023-05-25T04:56:51.498Z,2.30
2023-05-25T04:57:33.190Z,2.83
2023-05-25T04:58:15.433Z,3.13
2023-05-25T04:58:57.456Z,2.50
2023-05-25T04:59:39.565Z,2.40
2023-05-25T05:00:21.979Z,2.78
2023-05-25T05:01:05.177Z,3.08
2023-05-25T05:01:47.386Z,2.83
2023-05-25T05:02:31.779Z,2.80
2023-05-25T05:03:14.505Z,3.25
2023-05-25T05:03:57.419Z,2.75
2023-05-25T05:04:41.314Z,2.47
2023-05-25T05:05:23.641Z,2.85
2023-05-25T05:06:06.338Z,2.80
2023-05-25T05:06:48.500Z,2.60
2023-05-25T05:07:34.070Z,2.60
2023-05-25T05:08:15.889Z,3.05
2023-05-25T05:08:57.557Z,2.80
2023-05-25T05:09:39.284Z,3.25
2023-05-25T05:10:21.003Z,2.55
2023-05-25T05:11:07.823Z,3.47
2023-05-25T05:11:49.592Z,2.72
2023-05-25T05:12:32.750Z,2.80
2023-05-25T05:13:16.157Z,2.67
2023-05-25T05:13:59.046Z,2.60
2023-05-25T05:14:41.147Z,2.45
2023-05-25T05:15:23.174Z,2.67
2023-05-25T05:16:05.975Z,2.92
2023-05-25T05:16:48.272Z,2.65
2023-05-25T05:17:31.121Z,2.63
2023-05-25T05:18:14.126Z,2.33
2023-05-25T05:18:56.195Z,2.63
2023-05-25T05:19:37.897Z,2.53
2023-05-25T05:20:21.646Z,2.50
2023-05-25T05:21:03.488Z,2.83
2023-05-25T05:21:45.723Z,2.30
2023-05-25T05:22:27.684Z,2.70
2023-05-25T05:23:11.398Z,2.58
2023-05-25T05:23:53.139Z,2.83
2023-05-25T05:24:34.909Z,2.28
2023-05-25T05:25:16.646Z,2.67
2023-05-25T05:25:58.358Z,2.63
2023-05-25T05:26:55.581Z,2.55
2023-05-25T05:27:42.752Z,2.53
2023-05-25T05:28:31.696Z,2.50
2023-05-25T05:29:13.534Z,2.85
2023-05-25T05:29:55.420Z,2.40
2023-05-25T05:30:37.530Z,2.53
2023-05-25T05:31:19.732Z,2.83
2023-05-25T05:32:02.029Z,2.47
2023-05-25T05:32:46.023Z,2.38
2023-05-25T05:33:28.678Z,2.65
2023-05-25T05:34:10.574Z,2.75
2023-05-25T05:34:52.292Z,2.50
2023-05-25T05:35:47.393Z,2.05
2023-05-25T05:36:45.301Z,2.80
2023-05-25T05:37:34.781Z,2.60
2023-05-25T05:38:16.614Z,2.53
2023-05-25T05:38:58.301Z,2.70
2023-05-25T05:39:40.001Z,2.13
2023-05-25T05:40:21.680Z,2.22
2023-05-25T05:41:03.386Z,2.50
2023-05-25T05:41:45.437Z,2.83
2023-05-25T05:42:28.016Z,2.55
2023-05-25T05:43:13.508Z,2.60
2023-05-25T05:43:55.296Z,2.40
2023-05-25T05:44:37.211Z,2.47
2023-05-25T05:45:18.879Z,2.75
2023-05-25T05:46:00.625Z,2.58
2023-05-25T05:46:42.780Z,2.50
2023-05-25T05:47:24.748Z,2.78
2023-05-25T05:48:10.041Z,2.90
2023-05-25T05:48:54.674Z,3.17
2023-05-25T05:49:38.254Z,2.80
2023-05-25T05:50:20.296Z,3.05
2023-05-25T05:51:02.705Z,2.47
2023-05-25T05:51:44.567Z,2.30
2023-05-25T05:52:26.257Z,2.78
2023-05-25T05:53:09.741Z,2.92
2023-05-25T05:53:51.493Z,2.67
2023-05-25T05:54:33.301Z,3.10
2023-05-25T05:55:20.991Z,2.88
2023-05-25T05:56:05.838Z,2.47
2023-05-25T05:56:48.061Z,2.55
2023-05-25T05:57:29.783Z,2.13
2023-05-25T05:58:11.485Z,2.38
2023-05-25T05:58:54.505Z,2.60
2023-05-25T05:59:36.278Z,2.80
2023-05-25T06:00:18.524Z,2.65
2023-05-25T06:01:01.425Z,2.50
2023-05-25T06:01:43.591Z,2.28
2023-05-25T06:02:25.991Z,2.50
2023-05-25T06:03:08.004Z,3.05
2023-05-25T06:03:50.235Z,2.63
2023-05-25T06:04:32.699Z,2.88
2023-05-25T06:05:14.718Z,2.72
2023-05-25T06:05:57.323Z,2.60
2023-05-25T06:06:41.970Z,2.50
2023-05-25T06:07:23.699Z,3.20
2023-05-25T06:08:06.184Z,2.75
2023-05-25T06:08:51.101Z,2.97
2023-05-25T06:09:32.859Z,3.40
2023-05-25T06:10:15.238Z,2.78
2023-05-25T06:10:58.448Z,2.95
2023-05-25T06:11:40.275Z,3.13
2023-05-25T06:12:22.930Z,2.70
2023-05-25T06:13:04.791Z,2.88
2023-05-25T06:13:46.831Z,2.80
2023-05-25T06:14:29.684Z,3.30
2023-05-25T06:15:14.697Z,2.78
2023-05-25T06:15:57.015Z,2.75
2023-05-25T06:16:40.070Z,2.72
2023-05-25T06:17:23.425Z,2.97
2023-05-25T06:18:09.783Z,3.45
2023-05-25T06:18:51.662Z,2.72
2023-05-25T06:19:33.364Z,2.78
2023-05-25T06:20:15.255Z,2.95
2023-05-25T06:20:57.501Z,3.13
2023-05-25T06:21:39.169Z,2.90
2023-05-25T06:22:22.021Z,3.15
2023-05-25T06:23:09.168Z,2.92
2023-05-25T06:23:52.413Z,2.90
2023-05-25T06:24:34.175Z,3.00
2023-05-25T06:25:16.558Z,3.38
2023-05-25T06:26:03.962Z,3.03
2023-05-25T06:26:45.668Z,2.80
2023-05-25T06:27:28.661Z,3.15
2023-05-25T06:28:10.534Z,2.80
2023-05-25T06:28:55.369Z,3.00
2023-05-25T06:29:42.778Z,2.70
2023-05-25T06:30:27.678Z,3.20
2023-05-25T06:31:09.487Z,2.88
2023-05-25T06:31:51.355Z,2.90
2023-05-25T06:32:35.139Z,2.80
2023-05-25T06:33:16.860Z,3.38
2023-05-25T06:33:58.763Z,3.42
2023-05-25T06:34:40.523Z,2.72
2023-05-25T06:35:25.829Z,2.88
2023-05-25T06:36:08.818Z,3.13
2023-05-25T06:36:50.594Z,3.60
2023-05-25T06:37:35.277Z,3.22
2023-05-25T06:38:18.350Z,3.33
2023-05-25T06:39:00.015Z,2.95
2023-05-25T06:39:43.258Z,3.00
2023-05-25T06:40:25.708Z,2.63
2023-05-25T06:41:09.498Z,3.05
2023-05-25T06:41:51.389Z,3.63
2023-05-25T06:42:42.680Z,3.20
2023-05-25T06:43:42.982Z,2.83
2023-05-25T06:44:29.412Z,3.38
2023-05-25T06:45:13.864Z,2.97
2023-05-25T06:45:58.575Z,2.58
2023-05-25T06:46:40.300Z,2.88
2023-05-25T06:47:23.698Z,3.25
2023-05-25T06:48:05.700Z,3.25
2023-05-25T06:48:50.847Z,3.10
2023-05-25T06:49:32.720Z,3.25
2023-05-25T06:50:14.328Z,3.03
2023-05-25T06:50:56.172Z,3.15
2023-05-25T06:51:40.798Z,2.63
2023-05-25T06:52:22.566Z,2.63
2023-05-25T06:53:04.218Z,2.92
2023-05-25T06:53:46.321Z,3.28
2023-05-25T06:54:27.982Z,3.10
2023-05-25T06:55:11.421Z,3.53
2023-05-25T06:55:53.213Z,2.78
2023-05-25T06:56:34.880Z,2.83
2023-05-25T06:57:16.526Z,2.88
2023-05-25T06:58:00.803Z,2.72
2023-05-25T06:58:42.454Z,3.13
2023-05-25T06:59:24.145Z,2.97
2023-05-25T07:00:07.724Z,2.70
2023-05-25T07:00:51.162Z,2.70
2023-05-25T07:01:32.914Z,2.67
2023-05-25T07:02:14.569Z,3.03
2023-05-25T07:02:56.251Z,3.00
2023-05-25T07:03:40.475Z,2.83
2023-05-25T07:04:23.181Z,3.05
2023-05-25T07:05:08.274Z,3.15
2023-05-25T07:05:50.095Z,2.83
2023-05-25T07:06:37.366Z,2.63
2023-05-25T07:07:19.149Z,3.20
2023-05-25T07:08:00.844Z,2.25
2023-05-25T07:08:42.589Z,2.63
2023-05-25T07:09:26.932Z,3.45
2023-05-25T07:10:09.250Z,2.90
2023-05-25T07:10:53.098Z,2.65
2023-05-25T07:11:34.830Z,2.53
2023-05-25T07:12:16.551Z,3.05
2023-05-25T07:12:58.195Z,2.78
2023-05-25T07:13:42.582Z,2.97
2023-05-25T07:14:24.250Z,2.83
2023-05-25T07:15:06.760Z,2.85
2023-05-25T07:15:48.871Z,2.42
2023-05-25T07:16:31.999Z,2.60
2023-05-25T07:17:17.519Z,3.20
2023-05-25T07:17:59.238Z,2.80
2023-05-25T07:18:41.868Z,2.50
2023-05-25T07:19:23.552Z,2.88
2023-05-25T07:20:08.826Z,3.28
2023-05-25T07:20:51.463Z,3.05
2023-05-25T07:21:38.321Z,2.75
2023-05-25T07:22:20.256Z,2.72
2023-05-25T07:23:01.914Z,2.72
2023-05-25T07:23:43.618Z,3.00
2023-05-25T07:24:25.437Z,3.17
2023-05-25T07:25:07.517Z,3.22
2023-05-25T07:25:49.759Z,2.72
2023-05-25T07:26:34.681Z,3.22
2023-05-25T07:27:16.567Z,3.13
2023-05-25T07:27:58.283Z,2.83
2023-05-25T07:28:39.949Z,2.70
2023-05-25T07:29:21.801Z,3.10
2023-05-25T07:30:07.330Z,3.25
2023-05-25T07:30:52.117Z,3.00
2023-05-25T07:31:33.900Z,2.70
2023-05-25T07:32:15.835Z,3.55
2023-05-25T07:32:58.262Z,2.95
2023-05-25T07:33:39.987Z,2.97
2023-05-25T07:34:21.683Z,3.28
2023-05-25T07:35:03.551Z,2.78
2023-05-25T07:35:45.601Z,2.88
2023-05-25T07:36:27.704Z,2.83
2023-05-25T07:37:09.399Z,3.30
2023-05-25T07:37:57.975Z,3.10
2023-05-25T07:38:39.915Z,2.85
2023-05-25T07:39:21.720Z,3.08
2023-05-25T07:40:03.871Z,3.70
2023-05-25T07:40:47.334Z,3.20
2023-05-25T07:41:28.978Z,3.20
2023-05-25T07:42:11.309Z,3.30
2023-05-25T07:42:53.538Z,3.08
2023-05-25T07:43:35.451Z,2.50
2023-05-25T07:44:17.102Z,2.97
2023-05-25T07:45:02.430Z,2.65
2023-05-25T07:45:44.458Z,2.33
2023-05-25T07:46:26.562Z,3.13
2023-05-25T07:47:08.319Z,2.75
2023-05-25T07:47:50.202Z,3.13
2023-05-25T07:48:31.893Z,3.03
2023-05-25T07:49:16.202Z,3.00
2023-05-25T07:49:57.977Z,3.13
2023-05-25T07:50:39.596Z,3.10
2023-05-25T07:51:23.317Z,2.63
2023-05-25T07:52:06.030Z,3.70
2023-05-25T07:52:50.269Z,3.38
2023-05-25T07:53:31.916Z,3.30
2023-05-25T07:54:16.474Z,2.78
2023-05-25T07:54:58.247Z,2.92
2023-05-25T07:55:39.998Z,2.92
2023-05-25T07:56:30.552Z,3.60
2023-05-25T07:57:23.092Z,3.13
2023-05-25T07:58:14.122Z,3.20
2023-05-25T07:59:04.988Z,3.03
2023-05-25T07:59:46.728Z,2.95
2023-05-25T08:00:28.398Z,2.95
2023-05-25T08:01:10.177Z,3.40
2023-05-25T08:01:52.149Z,3.15
2023-05-25T08:02:35.376Z,3.03
2023-05-25T08:03:17.864Z,2.90
2023-05-25T08:03:59.942Z,2.90
2023-05-25T08:04:44.776Z,2.83
2023-05-25T08:05:26.949Z,2.88
2023-05-25T08:06:08.690Z,2.92
2023-05-25T08:06:50.512Z,2.95
2023-05-25T08:07:35.214Z,2.97
2023-05-25T08:08:16.923Z,3.10
2023-05-25T08:09:03.905Z,2.83
2023-05-25T08:09:45.771Z,2.53
2023-05-25T08:10:32.018Z,2.80
2023-05-25T08:11:15.518Z,2.42
2023-05-25T08:12:12.656Z,3.17
2023-05-25T08:12:59.297Z,2.92
2023-05-25T08:13:41.095Z,2.90
2023-05-25T08:14:23.874Z,2.63
2023-05-25T08:15:06.123Z,2.90
2023-05-25T08:15:49.639Z,3.10
2023-05-25T08:16:34.139Z,2.40
2023-05-25T08:17:15.995Z,2.80
2023-05-25T08:17:59.224Z,2.40
2023-05-25T08:18:44.090Z,3.22
2023-05-25T08:19:31.209Z,3.35
2023-05-25T08:20:14.147Z,3.63
2023-05-25T08:20:55.988Z,2.53
2023-05-25T08:21:38.473Z,2.60
2023-05-25T08:22:22.753Z,2.78
2023-05-25T08:23:04.879Z,3.33
2023-05-25T08:23:46.638Z,3.47
2023-05-25T08:24:31.331Z,3.10
2023-05-25T08:25:13.096Z,2.63
2023-05-25T08:25:54.859Z,3.30
2023-05-25T08:26:52.892Z,2.67
2023-05-25T08:27:36.744Z,3.38
2023-05-25T08:28:20.848Z,2.80
2023-05-25T08:29:06.788Z,3.70
2023-05-25T08:29:48.517Z,2.92
2023-05-25T08:30:30.878Z,2.80
2023-05-25T08:31:12.648Z,3.00
2023-05-25T08:31:54.379Z,2.70
2023-05-25T08:32:36.266Z,3.00
2023-05-25T08:33:20.287Z,2.70
2023-05-25T08:34:02.025Z,3.15
2023-05-25T08:34:46.212Z,2.80
2023-05-25T08:35:27.895Z,2.85
2023-05-25T08:36:09.626Z,2.83
2023-05-25T08:36:54.222Z,3.33
2023-05-25T08:37:35.883Z,3.22
2023-05-25T08:38:17.684Z,3.05
2023-05-25T08:38:59.394Z,3.15
2023-05-25T08:39:41.161Z,2.92
2023-05-25T08:40:28.226Z,3.28
2023-05-25T08:41:12.240Z,3.15
2023-05-25T08:41:54.042Z,3.15
2023-05-25T08:42:38.817Z,2.83
2023-05-25T08:43:23.167Z,3.20
2023-05-25T08:44:08.074Z,3.10
2023-05-25T08:44:50.105Z,3.10
2023-05-25T08:45:35.236Z,2.67
2023-05-25T08:46:29.386Z,2.88
2023-05-25T08:47:15.122Z,3.00
2023-05-25T08:48:01.416Z,3.83
2023-05-25T08:48:45.147Z,3.22
2023-05-25T08:49:28.628Z,2.83
2023-05-25T08:50:11.606Z,2.90
2023-05-25T08:50:54.600Z,3.05
2023-05-25T08:51:38.252Z,3.28
2023-05-25T08:52:26.510Z,3.58
2023-05-25T08:53:11.683Z,3.30
2023-05-25T08:53:55.492Z,3.80
2023-05-25T08:54:38.143Z,2.88
2023-05-25T08:55:22.644Z,3.63
2023-05-25T08:56:11.857Z,3.50
2023-05-25T08:56:59.895Z,3.17
2023-05-25T08:57:54.571Z,3.30
2023-05-25T08:58:43.516Z,3.53
2023-05-25T08:59:36.774Z,3.38
2023-05-25T09:00:22.148Z,3.03
2023-05-25T09:01:08.011Z,3.13
2023-05-25T09:01:56.280Z,3.10
2023-05-25T09:02:51.009Z,3.28
2023-05-25T09:03:33.758Z,3.25
2023-05-25T09:04:19.449Z,2.90
2023-05-25T09:05:02.152Z,3.40
2023-05-25T09:05:50.360Z,3.92
2023-05-25T09:06:33.899Z,3.30
2023-05-25T09:07:16.160Z,2.88
2023-05-25T09:07:58.904Z,4.10
2023-05-25T09:08:40.765Z,3.42
2023-05-25T09:09:22.608Z,3.00
2023-05-25T09:10:05.115Z,2.95
2023-05-25T09:10:49.820Z,4.07
2023-05-25T09:11:39.349Z,2.70
2023-05-25T09:12:23.785Z,3.28
2023-05-25T09:13:19.769Z,2.97
2023-05-25T09:14:03.155Z,3.38
2023-05-25T09:14:48.156Z,2.40
2023-05-25T09:15:33.785Z,2.80
2023-05-25T09:16:16.349Z,3.70
2023-05-25T09:17:01.333Z,3.05
2023-05-25T09:17:43.176Z,3.10
2023-05-25T09:18:24.935Z,3.25
2023-05-25T09:19:06.671Z,3.30
2023-05-25T09:19:51.082Z,3.30
2023-05-25T09:20:32.985Z,3.53
2023-05-25T09:21:14.727Z,4.03
2023-05-25T09:22:03.215Z,3.38
2023-05-25T09:22:55.483Z,3.20
2023-05-25T09:23:37.615Z,3.20
2023-05-25T09:24:22.296Z,3.40
2023-05-25T09:25:08.451Z,3.40
2023-05-25T09:25:57.499Z,2.80
2023-05-25T09:26:49.410Z,3.90
2023-05-25T09:27:42.346Z,3.50
2023-05-25T09:28:27.401Z,3.22
2023-05-25T09:29:09.441Z,3.70
2023-05-25T09:29:53.745Z,3.85
2023-05-25T09:30:36.347Z,3.92
2023-05-25T09:31:18.150Z,2.90
2023-05-25T09:32:00.721Z,3.25
2023-05-25T09:32:42.485Z,3.35
2023-05-25T09:33:24.336Z,3.22
2023-05-25T09:34:14.123Z,2.70
2023-05-25T09:34:57.644Z,3.42
2023-05-25T09:35:40.321Z,3.28
2023-05-25T09:36:23.230Z,3.53
2023-05-25T09:37:21.742Z,3.42
2023-05-25T09:38:03.670Z,3.17
2023-05-25T09:38:46.144Z,3.40
2023-05-25T09:39:28.304Z,3.70
2023-05-25T09:40:11.105Z,3.42
2023-05-25T09:40:52.812Z,2.90
2023-05-25T09:41:43.695Z,3.40
2023-05-25T09:42:25.987Z,3.35
2023-05-25T09:43:07.737Z,3.17